createdAt,value
2024-02-11T00:02:47.466Z,77.90
2024-02-11T00:05:50.132Z,78.17
2024-02-11T00:08:52.000Z,78.34
2024-02-11T00:11:53.052Z,78.29
2024-02-11T00:14:54.076Z,78.10
2024-02-11T00:17:55.180Z,78.18
2024-02-11T00:20:56.407Z,78.06
2024-02-11T00:23:59.544Z,77.89
2024-02-11T00:27:00.562Z,77.99
2024-02-11T00:30:01.958Z,78.00
2024-02-11T00:33:03.078Z,77.60
2024-02-11T00:36:06.284Z,77.73
2024-02-11T00:39:07.329Z,77.92
2024-02-11T00:42:08.321Z,77.96
2024-02-11T00:45:12.834Z,78.16
2024-02-11T00:48:13.914Z,77.99
2024-02-11T00:51:15.191Z,78.24
2024-02-11T00:54:16.170Z,77.72
2024-02-11T00:57:20.527Z,77.91
2024-02-11T01:00:23.012Z,77.58
2024-02-11T01:03:24.006Z,77.70
2024-02-11T01:06:25.880Z,77.73
2024-02-11T01:09:26.956Z,77.62
2024-02-11T01:12:29.053Z,77.80
2024-02-11T01:15:30.057Z,77.78
2024-02-11T01:18:31.069Z,77.77
2024-02-11T01:21:32.041Z,77.70
2024-02-11T01:24:34.943Z,77.85
2024-02-11T01:27:38.167Z,77.65
2024-02-11T01:30:39.536Z,77.86
2024-02-11T01:33:40.639Z,78.04
2024-02-11T01:36:42.141Z,78.14
2024-02-11T01:39:43.087Z,78.27
2024-02-11T01:42:48.551Z,78.28
2024-02-11T01:45:49.888Z,78.21
2024-02-11T01:48:51.241Z,78.18
2024-02-11T01:51:53.512Z,78.07
2024-02-11T01:54:55.381Z,78.21
2024-02-11T01:57:57.469Z,78.33
2024-02-11T02:00:59.607Z,78.31
2024-02-11T02:04:00.774Z,78.26
2024-02-11T02:07:03.072Z,78.29
2024-02-11T02:10:05.483Z,78.27
2024-02-11T02:13:06.541Z,78.46
2024-02-11T02:16:08.425Z,78.36
2024-02-11T02:19:10.724Z,78.34
2024-02-11T02:22:11.938Z,78.50
2024-02-11T02:25:12.945Z,78.35
2024-02-11T02:28:13.913Z,78.22
2024-02-11T02:31:14.925Z,78.57
2024-02-11T02:34:16.084Z,78.74
2024-02-11T02:37:17.249Z,78.67
2024-02-11T02:40:18.229Z,78.93
2024-02-11T02:43:19.390Z,79.04
2024-02-11T02:46:20.371Z,78.99
2024-02-11T02:49:21.415Z,79.29
2024-02-11T02:52:22.472Z,79.05
2024-02-11T02:55:23.435Z,79.08
2024-02-11T02:58:24.426Z,79.02
2024-02-11T03:01:28.105Z,78.91
2024-02-11T03:04:29.089Z,78.95
2024-02-11T03:07:30.234Z,78.76
2024-02-11T03:10:31.250Z,78.75
2024-02-11T03:13:32.296Z,78.68
2024-02-11T03:16:33.422Z,78.40
2024-02-11T03:19:34.631Z,78.19
2024-02-11T03:22:35.911Z,78.22
2024-02-11T03:25:36.977Z,78.33
2024-02-11T03:28:41.466Z,78.00
2024-02-11T03:31:42.740Z,78.10
2024-02-11T03:34:43.831Z,78.50
2024-02-11T03:37:44.924Z,78.59
2024-02-11T03:40:45.959Z,78.74
2024-02-11T03:43:47.107Z,78.77
2024-02-11T03:46:48.175Z,78.50
2024-02-11T03:49:50.698Z,78.61
2024-02-11T03:52:52.104Z,78.52
2024-02-11T03:55:53.555Z,78.41
2024-02-11T03:58:55.921Z,78.12
2024-02-11T04:02:04.873Z,77.98
2024-02-11T04:05:06.692Z,77.89
2024-02-11T04:08:09.006Z,77.85
2024-02-11T04:11:11.003Z,78.05
2024-02-11T04:14:12.839Z,77.97
2024-02-11T04:17:14.100Z,77.94
2024-02-11T04:20:25.610Z,78.05
2024-02-11T04:23:28.385Z,77.93
2024-02-11T04:26:29.415Z,77.82
2024-02-11T04:29:30.602Z,77.93
2024-02-11T04:32:31.637Z,78.05
2024-02-11T04:35:34.217Z,77.82
2024-02-11T04:38:35.650Z,77.60
2024-02-11T04:41:37.811Z,77.21
2024-02-11T04:44:38.835Z,77.82
2024-02-11T04:47:41.594Z,78.36
2024-02-11T04:50:44.655Z,78.63
2024-02-11T04:53:47.685Z,78.50
2024-02-11T04:56:48.678Z,78.37
2024-02-11T04:59:49.734Z,78.16
2024-02-11T05:02:55.787Z,78.20
2024-02-11T05:05:58.108Z,78.22
2024-02-11T05:09:01.325Z,77.95
2024-02-11T05:12:02.376Z,78.46
2024-02-11T05:15:04.377Z,78.24
2024-02-11T05:18:06.486Z,78.11
2024-02-11T05:21:07.567Z,78.43
2024-02-11T05:24:08.572Z,78.19
2024-02-11T05:27:09.978Z,78.50
2024-02-11T05:30:11.878Z,78.56
2024-02-11T05:33:13.802Z,78.46
2024-02-11T05:36:14.904Z,78.23
2024-02-11T05:39:19.531Z,78.26
2024-02-11T05:42:21.276Z,78.43
2024-02-11T05:45:22.826Z,78.30
2024-02-11T05:48:24.208Z,78.13
2024-02-11T05:51:25.620Z,78.25
2024-02-11T05:54:29.194Z,78.01
2024-02-11T05:57:30.285Z,78.15
2024-02-11T06:00:32.041Z,77.91
2024-02-11T06:03:33.769Z,78.23
2024-02-11T06:06:34.792Z,78.16
2024-02-11T06:09:35.737Z,78.46
2024-02-11T06:12:37.667Z,78.56
2024-02-11T06:15:41.116Z,78.88
2024-02-11T06:18:42.582Z,79.09
2024-02-11T06:21:44.333Z,79.45
2024-02-11T06:24:46.372Z,79.70
2024-02-11T06:27:50.646Z,80.31
2024-02-11T06:30:53.100Z,80.51
2024-02-11T06:33:54.270Z,80.75
2024-02-11T06:36:55.280Z,80.62
2024-02-11T06:39:56.252Z,80.77
2024-02-11T06:42:59.874Z,81.13
2024-02-11T06:46:00.814Z,81.56
2024-02-11T06:49:01.943Z,81.34
2024-02-11T06:52:03.547Z,81.51
2024-02-11T06:55:10.661Z,81.50
2024-02-11T06:58:12.454Z,81.55
2024-02-11T07:01:13.910Z,81.74
2024-02-11T07:04:15.083Z,81.56
2024-02-11T07:07:17.423Z,81.58
2024-02-11T07:10:18.521Z,81.64
2024-02-11T07:13:19.564Z,81.74
2024-02-11T07:16:22.326Z,81.54
2024-02-11T07:19:25.428Z,81.55
2024-02-11T07:22:26.386Z,81.62
2024-02-11T07:25:30.779Z,81.48
2024-02-11T07:28:31.900Z,81.77
2024-02-11T07:31:34.412Z,81.91
2024-02-11T07:34:35.686Z,81.95
2024-02-11T07:37:36.774Z,82.14
2024-02-11T07:40:37.836Z,82.12
2024-02-11T07:43:39.704Z,82.22
2024-02-11T07:46:40.840Z,82.29
2024-02-11T07:49:44.801Z,82.41
2024-02-11T07:52:47.282Z,82.25
2024-02-11T07:55:48.799Z,82.36
2024-02-11T07:58:49.952Z,82.32
2024-02-11T08:01:51.121Z,82.13
2024-02-11T08:04:52.306Z,81.88
2024-02-11T08:07:53.566Z,81.86
2024-02-11T08:10:55.049Z,81.77
2024-02-11T08:13:56.231Z,81.64
2024-02-11T08:16:57.425Z,81.44
2024-02-11T08:19:58.518Z,81.30
2024-02-11T08:22:59.912Z,81.29
2024-02-11T08:26:02.053Z,80.98
2024-02-11T08:29:04.957Z,80.83
2024-02-11T08:32:06.319Z,80.67
2024-02-11T08:35:09.480Z,80.70
2024-02-11T08:38:11.147Z,80.84
2024-02-11T08:41:12.417Z,80.61
2024-02-11T08:44:14.558Z,80.24
2024-02-11T08:47:16.364Z,79.92
2024-02-11T08:50:18.105Z,79.76
2024-02-11T08:53:19.656Z,80.19
2024-02-11T08:56:21.286Z,80.53
2024-02-11T08:59:22.911Z,80.26
2024-02-11T09:02:29.591Z,80.34
2024-02-11T09:05:35.109Z,80.31
2024-02-11T09:08:36.151Z,80.62
2024-02-11T09:11:37.294Z,80.11
2024-02-11T09:14:39.825Z,79.99
2024-02-11T09:17:44.012Z,79.76
2024-02-11T09:20:45.078Z,79.63
2024-02-11T09:23:46.084Z,79.22
2024-02-11T09:26:53.337Z,79.07
2024-02-11T09:29:54.399Z,79.34
2024-02-11T09:32:56.202Z,79.24
2024-02-11T09:35:58.029Z,79.07
2024-02-11T09:38:59.018Z,78.88
2024-02-11T09:42:00.164Z,78.71
2024-02-11T09:45:03.999Z,78.12
2024-02-11T09:48:08.188Z,78.00
2024-02-11T09:51:11.020Z,78.18
2024-02-11T09:54:13.906Z,77.90
2024-02-11T09:57:14.984Z,77.68
2024-02-11T10:00:18.465Z,77.68
2024-02-11T10:03:24.808Z,77.78
2024-02-11T10:06:37.950Z,77.10
2024-02-11T10:09:39.130Z,76.84
2024-02-11T10:12:42.224Z,76.63
2024-02-11T10:15:44.548Z,76.35
2024-02-11T10:18:45.580Z,76.24
2024-02-11T10:21:48.072Z,76.14
2024-02-11T10:24:50.000Z,75.83
2024-02-11T10:27:51.510Z,74.98
2024-02-11T10:30:55.650Z,74.97
2024-02-11T10:33:58.168Z,74.59
2024-02-11T10:37:01.334Z,74.68
2024-02-11T10:40:06.431Z,74.56
2024-02-11T10:43:10.268Z,74.18
2024-02-11T10:46:11.333Z,73.55
2024-02-11T10:49:12.440Z,73.22
2024-02-11T10:52:17.158Z,72.91
2024-02-11T10:55:22.877Z,72.80
2024-02-11T10:58:29.967Z,72.42
2024-02-11T11:01:33.329Z,72.40
2024-02-11T11:04:34.856Z,72.42
2024-02-11T11:07:39.501Z,72.30
2024-02-11T11:10:41.043Z,72.28
2024-02-11T11:13:42.425Z,72.39
2024-02-11T11:16:47.147Z,72.67
2024-02-11T11:19:53.005Z,72.68
2024-02-11T11:22:58.847Z,72.65
2024-02-11T11:25:59.915Z,72.42
2024-02-11T11:29:04.694Z,72.38
2024-02-11T11:32:11.193Z,72.34
2024-02-11T11:35:17.851Z,72.28
2024-02-11T11:38:22.671Z,71.96
2024-02-11T11:41:25.036Z,71.71
2024-02-11T11:44:26.172Z,71.61
2024-02-11T11:47:28.937Z,71.27
2024-02-11T11:50:29.991Z,71.01
2024-02-11T11:53:31.139Z,70.89
2024-02-11T11:56:32.224Z,70.72
2024-02-11T11:59:33.285Z,70.73
2024-02-11T12:02:35.885Z,71.03
2024-02-11T12:05:37.159Z,70.90
2024-02-11T12:08:39.278Z,71.26
2024-02-11T12:11:49.182Z,71.15
2024-02-11T12:14:50.933Z,70.83
2024-02-11T12:17:52.180Z,70.78
2024-02-11T12:20:54.660Z,70.75
2024-02-11T12:23:55.723Z,70.60
2024-02-11T12:26:59.524Z,70.22
2024-02-11T12:30:01.780Z,70.39
2024-02-11T12:33:04.384Z,70.74
2024-02-11T12:36:12.875Z,70.96
2024-02-11T12:39:13.868Z,71.05
2024-02-11T12:42:17.428Z,70.64
2024-02-11T12:45:18.749Z,70.67
2024-02-11T12:48:20.777Z,70.29
2024-02-11T12:51:21.825Z,69.49
2024-02-11T12:54:23.018Z,69.26
2024-02-11T12:57:23.966Z,68.90
2024-02-11T13:00:25.334Z,68.58
2024-02-11T13:03:26.647Z,68.54
2024-02-11T13:06:27.610Z,68.80
2024-02-11T13:09:28.580Z,69.06
2024-02-11T13:12:29.848Z,69.04
2024-02-11T13:15:30.829Z,69.21
2024-02-11T13:18:32.402Z,69.15
2024-02-11T13:21:35.097Z,69.56
2024-02-11T13:24:36.258Z,69.73
2024-02-11T13:27:43.656Z,70.13
2024-02-11T13:30:46.184Z,70.42
2024-02-11T13:33:47.304Z,70.93
2024-02-11T13:36:53.957Z,70.80
2024-02-11T13:39:57.804Z,71.05
2024-02-11T13:43:00.135Z,71.08
2024-02-11T13:46:01.147Z,71.28
2024-02-11T13:49:02.305Z,71.47
2024-02-11T13:52:03.669Z,71.58
2024-02-11T13:55:06.490Z,71.74
2024-02-11T13:58:07.556Z,71.96
2024-02-11T14:01:12.898Z,72.03
2024-02-11T14:04:14.078Z,72.23
2024-02-11T14:07:16.020Z,72.36
2024-02-11T14:10:17.079Z,72.31
2024-02-11T14:13:20.358Z,72.78
2024-02-11T14:16:21.397Z,73.02
2024-02-11T14:19:23.794Z,73.12
2024-02-11T14:22:24.908Z,73.29
2024-02-11T14:25:25.895Z,73.64
2024-02-11T14:28:26.939Z,73.38
2024-02-11T14:31:28.035Z,73.69
2024-02-11T14:34:31.390Z,73.34
2024-02-11T14:37:32.357Z,73.58
2024-02-11T14:40:33.982Z,73.73
2024-02-11T14:43:38.501Z,73.85
2024-02-11T14:46:40.434Z,73.68
2024-02-11T14:49:44.036Z,73.76
2024-02-11T14:52:45.161Z,74.06
2024-02-11T14:55:46.338Z,73.97
2024-02-11T14:58:48.027Z,74.12
2024-02-11T15:01:49.171Z,74.01
2024-02-11T15:04:50.713Z,74.07
2024-02-11T15:07:52.146Z,74.37
2024-02-11T15:10:54.086Z,74.31
2024-02-11T15:13:55.185Z,74.66
2024-02-11T15:16:56.272Z,74.46
2024-02-11T15:20:00.396Z,74.35
2024-02-11T15:23:01.472Z,74.24
2024-02-11T15:26:03.662Z,74.35
2024-02-11T15:29:04.772Z,74.51
2024-02-11T15:32:08.259Z,74.68
2024-02-11T15:35:09.437Z,74.53
2024-02-11T15:38:10.575Z,74.42
2024-02-11T15:41:11.659Z,74.48
2024-02-11T15:44:13.460Z,74.67
2024-02-11T15:47:14.968Z,74.87
2024-02-11T15:50:16.982Z,74.86
2024-02-11T15:53:18.142Z,75.15
2024-02-11T15:56:19.975Z,75.16
2024-02-11T15:59:21.107Z,74.93
2024-02-11T16:02:22.142Z,74.94
2024-02-11T16:05:24.446Z,75.24
2024-02-11T16:08:25.958Z,75.02
2024-02-11T16:11:27.085Z,75.32
2024-02-11T16:14:28.393Z,75.34
2024-02-11T16:17:37.274Z,75.25
2024-02-11T16:20:41.566Z,75.28
2024-02-11T16:23:44.345Z,75.19
2024-02-11T16:26:45.405Z,75.58
2024-02-11T16:29:46.390Z,75.33
2024-02-11T16:32:48.406Z,75.51
2024-02-11T16:35:49.669Z,75.51
2024-02-11T16:38:52.120Z,75.35
2024-02-11T16:41:53.140Z,75.48
2024-02-11T16:44:55.918Z,75.51
2024-02-11T16:47:58.693Z,75.61
2024-02-11T16:51:00.453Z,75.39
2024-02-11T16:54:01.780Z,75.53
2024-02-11T16:57:03.095Z,75.34
2024-02-11T17:00:04.776Z,75.57
2024-02-11T17:03:05.858Z,75.68
2024-02-11T17:06:07.854Z,75.59
2024-02-11T17:09:09.769Z,75.97
2024-02-11T17:12:13.705Z,75.93
2024-02-11T17:15:15.097Z,75.93
2024-02-11T17:18:16.279Z,75.85
2024-02-11T17:21:17.526Z,75.84
2024-02-11T17:24:18.779Z,76.06
2024-02-11T17:27:19.907Z,76.20
2024-02-11T17:30:20.979Z,76.14
2024-02-11T17:33:24.536Z,75.89
2024-02-11T17:36:25.757Z,76.02
2024-02-11T17:39:27.030Z,75.93
2024-02-11T17:42:28.034Z,75.94
2024-02-11T17:45:29.337Z,75.80
2024-02-11T17:48:30.621Z,75.99
2024-02-11T17:51:33.675Z,75.90
2024-02-11T17:54:38.079Z,76.15
2024-02-11T17:57:41.534Z,76.24
2024-02-11T18:00:53.238Z,76.12
2024-02-11T18:04:00.070Z,76.10
2024-02-11T18:07:01.089Z,75.90
2024-02-11T18:10:03.381Z,75.86
2024-02-11T18:13:04.788Z,75.71
2024-02-11T18:16:06.621Z,75.56
2024-02-11T18:19:09.363Z,75.59
2024-02-11T18:22:10.405Z,75.46
2024-02-11T18:25:23.908Z,75.66
2024-02-11T18:28:35.058Z,75.17
2024-02-11T18:31:36.082Z,75.41
2024-02-11T18:34:38.314Z,75.44
2024-02-11T18:37:39.277Z,75.60
2024-02-11T18:40:40.280Z,75.48
2024-02-11T18:43:42.010Z,75.33
2024-02-11T18:46:43.943Z,75.15
2024-02-11T18:49:44.999Z,75.43
2024-02-11T18:52:46.472Z,75.48
2024-02-11T18:55:48.098Z,75.80
2024-02-11T18:58:50.271Z,75.49
2024-02-11T19:01:51.265Z,75.55
2024-02-11T19:04:52.898Z,75.63
2024-02-11T19:07:54.719Z,75.75
2024-02-11T19:10:55.702Z,75.74
2024-02-11T19:13:58.695Z,75.65
2024-02-11T19:17:00.146Z,75.83
2024-02-11T19:20:02.504Z,75.52
2024-02-11T19:23:05.431Z,75.51
2024-02-11T19:26:06.410Z,75.29
2024-02-11T19:29:10.688Z,75.73
2024-02-11T19:32:12.306Z,75.69
2024-02-11T19:35:14.784Z,75.93
2024-02-11T19:38:15.882Z,75.71
2024-02-11T19:41:17.262Z,75.78
2024-02-11T19:44:19.285Z,75.62
2024-02-11T19:47:20.940Z,75.71
2024-02-11T19:50:22.062Z,75.68
2024-02-11T19:53:34.196Z,76.11
2024-02-11T19:56:39.337Z,76.34
2024-02-11T19:59:40.326Z,76.13
2024-02-11T20:02:41.307Z,76.15
2024-02-11T20:05:43.360Z,76.31
2024-02-11T20:08:46.908Z,75.98
2024-02-11T20:11:48.169Z,75.89
2024-02-11T20:14:49.222Z,75.95
2024-02-11T20:17:50.863Z,76.27
2024-02-11T20:20:54.892Z,76.53
2024-02-11T20:23:57.263Z,76.26
2024-02-11T20:26:58.210Z,76.30
2024-02-11T20:29:59.367Z,76.48
2024-02-11T20:33:04.491Z,76.38
2024-02-11T20:36:07.695Z,76.66
2024-02-11T20:39:11.263Z,77.01
2024-02-11T20:42:12.253Z,77.25
2024-02-11T20:45:18.102Z,77.16
2024-02-11T20:48:19.300Z,77.05
2024-02-11T20:51:21.250Z,76.81
2024-02-11T20:54:23.091Z,76.83
2024-02-11T20:57:24.194Z,77.11
2024-02-11T21:00:27.309Z,76.98
2024-02-11T21:03:28.532Z,76.99
2024-02-11T21:06:29.582Z,77.49
2024-02-11T21:09:31.045Z,77.23
2024-02-11T21:12:32.012Z,77.44
2024-02-11T21:15:34.717Z,77.29
2024-02-11T21:18:36.603Z,77.55
2024-02-11T21:21:38.296Z,77.59
2024-02-11T21:24:41.121Z,77.16
2024-02-11T21:27:49.006Z,77.34
2024-02-11T21:31:04.951Z,77.36
2024-02-11T21:34:10.220Z,77.22
2024-02-11T21:37:11.196Z,77.48
2024-02-11T21:40:14.525Z,77.56
2024-02-11T21:43:15.461Z,77.04
2024-02-11T21:46:18.365Z,77.42
2024-02-11T21:49:19.343Z,77.15
2024-02-11T21:52:21.227Z,77.16
2024-02-11T21:55:22.190Z,77.26
2024-02-11T21:58:23.222Z,77.38
2024-02-11T22:01:24.224Z,77.29
2024-02-11T22:04:25.335Z,77.22
2024-02-11T22:07:26.444Z,77.38
2024-02-11T22:10:27.456Z,77.38
2024-02-11T22:13:30.483Z,77.20
2024-02-11T22:16:31.461Z,77.11
2024-02-11T22:19:32.464Z,76.86
2024-02-11T22:22:33.569Z,76.68
2024-02-11T22:25:34.768Z,76.42
2024-02-11T22:28:35.771Z,76.68
2024-02-11T22:31:38.628Z,76.77
2024-02-11T22:34:40.125Z,76.58
2024-02-11T22:37:41.125Z,76.61
2024-02-11T22:40:42.109Z,76.35
2024-02-11T22:43:45.897Z,76.37
2024-02-11T22:46:46.883Z,76.28
2024-02-11T22:49:48.984Z,76.39
2024-02-11T22:52:51.285Z,76.17
2024-02-11T22:55:52.322Z,75.69
2024-02-11T22:58:53.295Z,75.90
2024-02-11T23:01:54.257Z,75.31
2024-02-11T23:04:55.468Z,75.58
2024-02-11T23:07:56.637Z,75.53
2024-02-11T23:10:57.732Z,75.57
2024-02-11T23:13:58.854Z,75.46
2024-02-11T23:17:00.544Z,75.54
2024-02-11T23:20:07.554Z,75.23
2024-02-11T23:23:08.702Z,75.48
2024-02-11T23:26:09.681Z,75.63
2024-02-11T23:29:10.922Z,75.47
2024-02-11T23:32:12.717Z,75.55
2024-02-11T23:35:14.998Z,75.64
2024-02-11T23:38:19.538Z,75.79
2024-02-11T23:41:21.805Z,75.88
2024-02-11T23:44:22.778Z,75.97
2024-02-11T23:47:24.381Z,76.15
2024-02-11T23:50:25.461Z,76.15
2024-02-11T23:53:29.487Z,76.29
2024-02-11T23:56:32.550Z,76.36
2024-02-11T23:59:34.227Z,76.49
